createdAt,value
2018-05-09T00:00:25.894Z,18.09
2018-05-09T00:01:31.416Z,18.09
2018-05-09T00:02:37.167Z,18.10
2018-05-09T00:03:42.936Z,18.07
2018-05-09T00:04:48.689Z,18.02
2018-05-09T00:05:54.444Z,18.04
2018-05-09T00:07:00.187Z,18.02
2018-05-09T00:08:05.940Z,18.02
2018-05-09T00:09:12.477Z,17.98
2018-05-09T00:10:18.306Z,17.95
2018-05-09T00:11:24.081Z,17.95
2018-05-09T00:12:29.797Z,17.92
2018-05-09T00:13:35.547Z,17.90
2018-05-09T00:14:41.325Z,17.89
2018-05-09T00:15:47.838Z,17.89
2018-05-09T00:16:53.581Z,17.85
2018-05-09T00:17:59.333Z,17.84
2018-05-09T00:19:05.091Z,17.82
2018-05-09T00:20:11.627Z,17.79
2018-05-09T00:21:17.372Z,17.78
2018-05-09T00:22:23.123Z,17.75
2018-05-09T00:23:28.869Z,17.75
2018-05-09T00:24:35.378Z,17.75
2018-05-09T00:25:41.155Z,17.74
2018-05-09T00:26:46.906Z,17.74
2018-05-09T00:27:52.650Z,17.75
2018-05-09T00:28:59.814Z,17.74
2018-05-09T00:30:04.895Z,17.71
2018-05-09T00:31:10.678Z,17.68
2018-05-09T00:32:16.427Z,17.66
2018-05-09T00:33:22.175Z,17.64
2018-05-09T00:34:28.697Z,17.62
2018-05-09T00:35:34.465Z,17.62
2018-05-09T00:36:41.001Z,17.61
2018-05-09T00:37:46.747Z,17.59
2018-05-09T00:38:52.501Z,17.58
2018-05-09T00:39:58.252Z,17.58
2018-05-09T00:41:03.994Z,17.56
2018-05-09T00:42:10.524Z,17.55
2018-05-09T00:43:16.271Z,17.55
2018-05-09T00:44:22.019Z,17.55
2018-05-09T00:45:27.535Z,17.51
2018-05-09T00:46:33.287Z,17.53
2018-05-09T00:47:39.065Z,17.54
2018-05-09T00:48:44.813Z,17.54
2018-05-09T00:49:51.328Z,17.56
2018-05-09T00:50:57.070Z,17.56
2018-05-09T00:52:02.819Z,17.58
2018-05-09T00:53:08.592Z,17.54
2018-05-09T00:54:33.830Z,17.53
2018-05-09T00:55:39.587Z,17.47
2018-05-09T00:56:45.602Z,17.42
2018-05-09T00:57:52.124Z,17.43
2018-05-09T00:58:57.891Z,17.41
2018-05-09T01:00:03.956Z,17.36
2018-05-09T01:01:09.726Z,17.35
2018-05-09T01:02:15.470Z,17.33
2018-05-09T01:03:21.225Z,17.28
2018-05-09T01:04:27.024Z,17.23
2018-05-09T01:05:32.203Z,17.23
2018-05-09T01:06:39.464Z,17.23
2018-05-09T01:07:45.212Z,17.23
2018-05-09T01:08:50.993Z,17.22
2018-05-09T01:09:56.808Z,17.21
2018-05-09T01:11:02.332Z,17.19
2018-05-09T01:12:08.090Z,17.17
2018-05-09T01:13:13.838Z,17.17
2018-05-09T01:14:19.605Z,17.17
2018-05-09T01:15:26.143Z,17.16
2018-05-09T01:16:31.895Z,17.15
2018-05-09T01:17:38.414Z,17.13
2018-05-09T01:18:44.160Z,17.13
2018-05-09T01:19:49.725Z,17.11
2018-05-09T01:20:55.489Z,17.11
2018-05-09T01:22:01.252Z,17.10
2018-05-09T01:23:07.003Z,17.10
2018-05-09T01:24:12.524Z,17.06
2018-05-09T01:25:18.277Z,17.06
2018-05-09T01:26:24.064Z,17.04
2018-05-09T01:27:30.577Z,17.02
2018-05-09T01:28:36.311Z,17.00
2018-05-09T01:29:42.068Z,16.99
2018-05-09T01:30:47.608Z,16.96
2018-05-09T01:31:53.379Z,16.94
2018-05-09T01:32:59.139Z,16.93
2018-05-09T01:34:05.653Z,16.93
2018-05-09T01:35:11.398Z,16.91
2018-05-09T01:36:17.156Z,16.94
2018-05-09T01:37:22.932Z,16.95
2018-05-09T01:38:29.230Z,16.99
2018-05-09T01:39:35.011Z,16.99
2018-05-09T01:40:40.761Z,17.00
2018-05-09T01:41:47.275Z,17.02
2018-05-09T01:42:53.027Z,17.03
2018-05-09T01:43:58.763Z,17.04
2018-05-09T01:45:04.503Z,17.05
2018-05-09T01:46:10.008Z,17.06
2018-05-09T01:47:15.749Z,17.05
2018-05-09T01:48:21.612Z,17.05
2018-05-09T01:49:27.363Z,17.06
2018-05-09T01:50:33.149Z,17.07
2018-05-09T01:51:39.660Z,17.06
2018-05-09T01:52:45.412Z,17.04
2018-05-09T01:53:51.177Z,17.04
2018-05-09T01:54:57.753Z,17.04
2018-05-09T01:56:03.670Z,17.04
2018-05-09T01:57:09.412Z,17.03
2018-05-09T01:58:15.222Z,17.03
2018-05-09T01:59:20.983Z,17.03
2018-05-09T02:00:26.827Z,17.03
2018-05-09T02:01:32.594Z,17.02
2018-05-09T02:02:39.101Z,17.01
2018-05-09T02:03:44.850Z,17.02
2018-05-09T02:04:50.609Z,17.02
2018-05-09T02:05:56.421Z,17.01
2018-05-09T02:07:02.186Z,17.02
2018-05-09T02:08:07.951Z,17.02
2018-05-09T02:09:13.705Z,17.02
2018-05-09T02:10:20.015Z,17.01
2018-05-09T02:11:25.760Z,17.02
2018-05-09T02:12:32.760Z,17.02
2018-05-09T02:13:40.252Z,17.00
2018-05-09T02:14:45.496Z,17.01
2018-05-09T02:15:52.035Z,17.01
2018-05-09T02:16:57.560Z,16.99
2018-05-09T02:18:03.302Z,16.97
2018-05-09T02:19:09.055Z,16.97
2018-05-09T02:20:14.817Z,16.96
2018-05-09T02:21:21.350Z,16.95
2018-05-09T02:22:27.089Z,16.95
2018-05-09T02:23:32.835Z,16.94
2018-05-09T02:24:38.813Z,16.94
2018-05-09T02:25:45.346Z,16.93
2018-05-09T02:26:52.623Z,16.91
2018-05-09T02:27:59.143Z,16.90
2018-05-09T02:29:04.675Z,16.89
2018-05-09T02:30:10.418Z,16.87
2018-05-09T02:31:16.294Z,16.86
2018-05-09T02:32:22.149Z,16.84
2018-05-09T02:33:27.894Z,16.83
2018-05-09T02:34:33.631Z,16.82
2018-05-09T02:35:39.368Z,16.81
2018-05-09T02:36:45.125Z,16.80
2018-05-09T02:37:51.410Z,16.80
2018-05-09T02:38:57.165Z,16.79
2018-05-09T02:40:02.911Z,16.79
2018-05-09T02:41:08.663Z,16.78
2018-05-09T02:42:14.169Z,16.79
2018-05-09T02:43:19.942Z,16.78
2018-05-09T02:44:25.689Z,16.79
2018-05-09T02:45:31.422Z,16.79
2018-05-09T02:46:37.154Z,16.78
2018-05-09T02:47:42.915Z,16.77
2018-05-09T02:48:48.685Z,16.75
2018-05-09T02:49:54.490Z,16.74
2018-05-09T02:51:01.133Z,16.73
2018-05-09T02:52:06.871Z,16.73
2018-05-09T02:53:12.626Z,16.72
2018-05-09T02:54:18.384Z,16.72
2018-05-09T02:55:24.127Z,16.70
2018-05-09T02:56:29.871Z,16.69
2018-05-09T02:57:35.619Z,16.70
2018-05-09T02:58:41.375Z,16.69
2018-05-09T02:59:47.156Z,16.68
2018-05-09T03:00:52.898Z,16.68
2018-05-09T03:01:58.414Z,16.68
2018-05-09T03:03:04.919Z,16.67
2018-05-09T03:04:10.677Z,16.66
2018-05-09T03:05:16.218Z,16.67
2018-05-09T03:06:21.972Z,16.66
2018-05-09T03:07:27.718Z,16.66
2018-05-09T03:08:33.255Z,16.66
2018-05-09T03:09:39.773Z,16.66
2018-05-09T03:10:45.533Z,16.65
2018-05-09T03:11:51.273Z,16.65
2018-05-09T03:12:57.016Z,16.65
2018-05-09T03:14:02.760Z,16.65
2018-05-09T03:15:08.499Z,16.63
2018-05-09T03:16:14.270Z,16.64
2018-05-09T03:17:20.778Z,16.64
2018-05-09T03:18:26.526Z,16.64
2018-05-09T03:19:32.271Z,16.64
2018-05-09T03:20:38.024Z,16.64
2018-05-09T03:21:43.802Z,16.65
2018-05-09T03:22:49.552Z,16.66
2018-05-09T03:23:55.389Z,16.66
2018-05-09T03:25:01.913Z,16.65
2018-05-09T03:26:08.419Z,16.65
2018-05-09T03:27:14.193Z,16.63
2018-05-09T03:28:19.952Z,16.61
2018-05-09T03:29:25.698Z,16.59
2018-05-09T03:30:31.449Z,16.55
2018-05-09T03:31:37.412Z,16.55
2018-05-09T03:32:43.954Z,16.52
2018-05-09T03:33:49.695Z,16.48
2018-05-09T03:34:55.463Z,16.44
2018-05-09T03:36:01.218Z,16.42
2018-05-09T03:37:06.979Z,16.42
2018-05-09T03:38:12.763Z,16.43
2018-05-09T03:39:18.520Z,16.40
2018-05-09T03:40:25.041Z,16.40
2018-05-09T03:41:30.795Z,16.40
2018-05-09T03:42:36.555Z,16.40
2018-05-09T03:43:43.100Z,16.42
2018-05-09T03:44:49.615Z,16.40
2018-05-09T03:45:55.439Z,16.40
2018-05-09T03:47:01.962Z,16.39
2018-05-09T03:48:07.702Z,16.38
2018-05-09T03:49:13.585Z,16.39
2018-05-09T03:50:20.092Z,16.37
2018-05-09T03:51:25.847Z,16.39
2018-05-09T03:52:31.623Z,16.39
2018-05-09T03:53:37.895Z,16.40
2018-05-09T03:54:43.670Z,16.41
2018-05-09T03:55:49.457Z,16.42
2018-05-09T03:56:55.966Z,16.42
2018-05-09T03:58:01.723Z,16.39
2018-05-09T03:59:07.457Z,16.39
2018-05-09T04:00:13.231Z,16.38
2018-05-09T04:01:19.765Z,16.39
2018-05-09T04:02:44.267Z,16.40
2018-05-09T04:04:06.845Z,16.41
2018-05-09T04:05:29.475Z,16.43
2018-05-09T04:06:52.239Z,16.46
2018-05-09T04:08:14.871Z,16.48
2018-05-09T04:09:34.801Z,16.51
2018-05-09T04:10:40.721Z,16.52
2018-05-09T04:11:46.464Z,16.50
2018-05-09T04:12:52.204Z,16.50
2018-05-09T04:13:57.954Z,16.48
2018-05-09T04:15:03.480Z,16.51
2018-05-09T04:16:09.252Z,16.53
2018-05-09T04:17:15.789Z,16.55
2018-05-09T04:18:21.539Z,16.55
2018-05-09T04:19:28.055Z,16.55
2018-05-09T04:20:33.844Z,16.58
2018-05-09T04:21:39.780Z,16.62
2018-05-09T04:22:46.300Z,16.61
2018-05-09T04:23:52.047Z,16.62
2018-05-09T04:24:57.832Z,16.64
2018-05-09T04:26:04.773Z,16.66
2018-05-09T04:27:11.439Z,16.67
2018-05-09T04:28:17.248Z,16.69
2018-05-09T04:29:22.999Z,16.72
2018-05-09T04:30:28.751Z,16.72
2018-05-09T04:31:34.523Z,16.72
2018-05-09T04:32:41.083Z,16.71
2018-05-09T04:33:47.603Z,16.70
2018-05-09T04:34:53.373Z,16.69
2018-05-09T04:35:59.136Z,16.69
2018-05-09T04:37:05.663Z,16.70
2018-05-09T04:38:12.219Z,16.70
2018-05-09T04:39:18.329Z,16.72
2018-05-09T04:40:24.094Z,16.77
2018-05-09T04:41:29.859Z,16.80
2018-05-09T04:42:36.787Z,16.85
2018-05-09T04:43:42.589Z,16.86
2018-05-09T04:44:49.339Z,16.92
2018-05-09T04:45:55.097Z,16.96
2018-05-09T04:47:01.627Z,17.01
2018-05-09T04:48:07.376Z,17.07
2018-05-09T04:49:13.201Z,17.13
2018-05-09T04:50:19.135Z,17.12
2018-05-09T04:51:24.898Z,17.18
2018-05-09T04:52:30.659Z,17.21
2018-05-09T04:53:36.415Z,17.22
2018-05-09T04:54:43.009Z,17.23
2018-05-09T04:55:48.763Z,17.25
2018-05-09T04:56:54.527Z,17.27
2018-05-09T04:58:00.272Z,17.29
2018-05-09T04:59:06.035Z,17.29
2018-05-09T05:00:12.584Z,17.30
2018-05-09T05:01:18.339Z,17.31
2018-05-09T05:02:24.877Z,17.33
2018-05-09T05:03:30.640Z,17.36
2018-05-09T05:04:37.171Z,17.37
2018-05-09T05:05:42.951Z,17.41
2018-05-09T05:06:49.482Z,17.44
2018-05-09T05:07:55.259Z,17.47
2018-05-09T05:09:01.772Z,17.48
2018-05-09T05:10:07.523Z,17.51
2018-05-09T05:11:13.303Z,17.51
2018-05-09T05:12:19.070Z,17.52
2018-05-09T05:13:24.839Z,17.53
2018-05-09T05:14:30.596Z,17.51
2018-05-09T05:15:36.369Z,17.53
2018-05-09T05:16:42.157Z,17.58
2018-05-09T05:17:48.158Z,17.58
2018-05-09T05:18:54.708Z,17.62
2018-05-09T05:20:00.443Z,17.63
2018-05-09T05:21:06.191Z,17.63
2018-05-09T05:22:12.737Z,17.64
2018-05-09T05:23:18.495Z,17.68
2018-05-09T05:24:25.377Z,17.73
2018-05-09T05:25:31.222Z,17.75
2018-05-09T05:26:37.067Z,17.77
2018-05-09T05:27:42.851Z,17.77
2018-05-09T05:28:48.606Z,17.76
2018-05-09T05:29:54.360Z,17.82
2018-05-09T05:31:00.128Z,17.82
2018-05-09T05:32:06.999Z,17.87
2018-05-09T05:33:12.790Z,17.90
2018-05-09T05:34:18.539Z,17.95
2018-05-09T05:35:24.295Z,17.98
2018-05-09T05:36:30.811Z,18.00
2018-05-09T05:37:36.572Z,17.99
2018-05-09T05:38:42.370Z,18.03
2018-05-09T05:39:48.892Z,18.08
2018-05-09T05:40:54.639Z,18.13
2018-05-09T05:42:01.163Z,18.15
2018-05-09T05:43:06.956Z,18.17
2018-05-09T05:44:13.532Z,18.20
2018-05-09T05:45:19.503Z,18.26
2018-05-09T05:46:25.486Z,18.31
2018-05-09T05:47:31.580Z,18.35
2018-05-09T05:48:37.327Z,18.33
2018-05-09T05:49:43.579Z,18.41
2018-05-09T05:50:49.485Z,18.43
2018-05-09T05:51:55.466Z,18.46
2018-05-09T05:53:01.261Z,18.51
2018-05-09T05:54:07.357Z,18.55
2018-05-09T05:55:13.154Z,18.62
2018-05-09T05:56:20.439Z,18.67
2018-05-09T05:57:26.195Z,18.70
2018-05-09T05:58:32.730Z,18.72
2018-05-09T05:59:38.483Z,18.68
2018-05-09T06:00:44.320Z,18.85
2018-05-09T06:01:50.068Z,18.93
2018-05-09T06:02:55.831Z,18.98
2018-05-09T06:04:02.369Z,19.01
2018-05-09T06:05:07.792Z,19.06
2018-05-09T06:06:13.584Z,19.09
2018-05-09T06:07:19.334Z,19.12
2018-05-09T06:08:25.093Z,19.21
2018-05-09T06:09:30.858Z,19.31
2018-05-09T06:10:36.618Z,19.39
2018-05-09T06:11:42.389Z,19.50
2018-05-09T06:12:47.903Z,19.63
2018-05-09T06:13:54.431Z,19.73
2018-05-09T06:15:00.178Z,19.80
2018-05-09T06:16:05.709Z,19.87
2018-05-09T06:17:11.509Z,19.91
2018-05-09T06:18:18.222Z,20.03
2018-05-09T06:19:23.977Z,20.25
2018-05-09T06:20:29.737Z,20.61
2018-05-09T06:21:36.268Z,21.11
2018-05-09T06:22:42.052Z,21.68
2018-05-09T06:23:47.853Z,22.25
2018-05-09T06:24:53.771Z,22.67
2018-05-09T06:25:59.511Z,23.05
2018-05-09T06:27:05.329Z,23.33
2018-05-09T06:28:11.100Z,23.68
2018-05-09T06:29:16.849Z,24.14
2018-05-09T06:30:22.619Z,24.46
2018-05-09T06:31:29.137Z,24.93
2018-05-09T06:32:34.875Z,25.27
2018-05-09T06:33:40.653Z,25.51
2018-05-09T06:34:46.388Z,25.77
2018-05-09T06:35:52.143Z,26.02
2018-05-09T06:36:57.891Z,26.21
2018-05-09T06:38:04.399Z,26.54
2018-05-09T06:39:09.952Z,26.89
2018-05-09T06:40:15.692Z,27.26
2018-05-09T06:41:21.431Z,27.49
2018-05-09T06:42:27.179Z,27.70
2018-05-09T06:43:32.943Z,27.69
2018-05-09T06:44:40.222Z,27.66
2018-05-09T06:45:45.974Z,27.38
2018-05-09T06:46:51.706Z,27.32
2018-05-09T06:47:57.455Z,27.10
2018-05-09T06:49:04.013Z,26.78
2018-05-09T06:50:09.781Z,26.87
2018-05-09T06:51:15.544Z,26.83
2018-05-09T06:52:21.299Z,26.88
2018-05-09T06:53:27.052Z,26.98
2018-05-09T06:54:32.809Z,27.02
2018-05-09T06:55:38.583Z,26.93
2018-05-09T06:56:44.368Z,26.72
2018-05-09T06:57:50.115Z,26.72
2018-05-09T06:58:55.881Z,26.94
2018-05-09T07:00:01.852Z,27.23
2018-05-09T07:01:08.355Z,27.62
2018-05-09T07:02:14.098Z,28.06
2018-05-09T07:03:19.615Z,28.46
2018-05-09T07:04:25.371Z,28.58
2018-05-09T07:05:31.115Z,28.58
2018-05-09T07:06:37.042Z,28.69
2018-05-09T07:07:42.861Z,28.85
2018-05-09T07:08:49.369Z,29.18
2018-05-09T07:09:55.111Z,29.22
2018-05-09T07:11:00.855Z,29.61
2018-05-09T07:12:06.682Z,29.84
2018-05-09T07:13:13.346Z,30.05
2018-05-09T07:14:19.102Z,30.37
2018-05-09T07:15:24.847Z,30.72
2018-05-09T07:16:30.596Z,30.94
2018-05-09T07:17:36.375Z,30.92
2018-05-09T07:18:42.119Z,31.26
2018-05-09T07:19:47.860Z,31.58
2018-05-09T07:20:53.607Z,31.92
2018-05-09T07:22:00.116Z,32.06
2018-05-09T07:23:05.937Z,32.51
2018-05-09T07:24:12.592Z,32.97
2018-05-09T07:25:18.677Z,33.19
2018-05-09T07:26:25.928Z,33.58
2018-05-09T07:27:31.893Z,33.83
2018-05-09T07:28:37.427Z,34.09
2018-05-09T07:29:43.171Z,34.39
2018-05-09T07:30:48.911Z,34.61
2018-05-09T07:31:54.667Z,34.82
2018-05-09T07:33:01.178Z,35.02
2018-05-09T07:34:06.952Z,35.03
2018-05-09T07:35:12.701Z,35.15
2018-05-09T07:36:18.454Z,35.31
2018-05-09T07:37:24.200Z,35.01
2018-05-09T07:38:29.946Z,35.24
2018-05-09T07:39:36.482Z,35.16
2018-05-09T07:40:42.356Z,35.07
2018-05-09T07:41:48.864Z,35.22
2018-05-09T07:42:54.762Z,35.26
2018-05-09T07:44:00.695Z,35.57
2018-05-09T07:45:07.244Z,35.88
2018-05-09T07:46:13.001Z,35.50
2018-05-09T07:47:19.508Z,35.65
2018-05-09T07:48:26.024Z,35.82
2018-05-09T07:49:32.545Z,36.18
2018-05-09T07:50:38.322Z,36.34
2018-05-09T07:51:44.848Z,36.55
2018-05-09T07:52:50.603Z,36.60
2018-05-09T07:53:57.864Z,36.79
2018-05-09T07:55:03.374Z,36.94
2018-05-09T07:56:09.147Z,37.29
2018-05-09T07:57:14.918Z,37.38
2018-05-09T07:58:21.431Z,37.32
2018-05-09T07:59:27.187Z,37.24
2018-05-09T08:00:32.925Z,37.21
2018-05-09T08:01:38.473Z,37.18
2018-05-09T08:02:43.955Z,37.19
2018-05-09T08:03:49.706Z,37.06
2018-05-09T08:04:54.631Z,37.53
2018-05-09T08:06:00.171Z,37.55
2018-05-09T08:07:05.830Z,37.53
2018-05-09T08:08:12.092Z,37.44
2018-05-09T08:09:18.335Z,37.48
2018-05-09T08:10:24.589Z,37.95
2018-05-09T08:11:30.846Z,38.28
2018-05-09T08:12:37.154Z,38.32
2018-05-09T08:13:42.864Z,37.84
2018-05-09T08:14:48.343Z,37.64
2018-05-09T08:15:53.820Z,37.61
2018-05-09T08:16:59.082Z,36.94
2018-05-09T08:18:04.578Z,36.64
2018-05-09T08:19:10.828Z,36.45
2018-05-09T08:20:17.073Z,36.02
2018-05-09T08:21:23.335Z,35.80
2018-05-09T08:22:29.095Z,35.96
2018-05-09T08:23:34.863Z,36.11
2018-05-09T08:24:41.384Z,36.60
2018-05-09T08:25:47.127Z,36.99
2018-05-09T08:26:52.882Z,37.47
2018-05-09T08:27:58.453Z,37.73
2018-05-09T08:29:04.990Z,37.83
2018-05-09T08:30:11.311Z,37.93
2018-05-09T08:31:17.066Z,37.81
2018-05-09T08:32:23.599Z,37.49
2018-05-09T08:33:29.089Z,37.37
2018-05-09T08:34:34.606Z,37.28
2018-05-09T08:35:40.105Z,37.39
2018-05-09T08:36:45.892Z,37.39
2018-05-09T08:37:51.813Z,37.41
2018-05-09T08:38:58.092Z,37.18
2018-05-09T08:40:03.857Z,37.09
2018-05-09T08:41:09.344Z,36.78
2018-05-09T08:42:16.111Z,36.77
2018-05-09T08:43:21.903Z,36.59
2018-05-09T08:44:27.827Z,36.45
2018-05-09T08:45:34.363Z,36.31
2018-05-09T08:46:40.891Z,36.36
2018-05-09T08:47:46.656Z,36.31
2018-05-09T08:48:52.424Z,36.66
2018-05-09T08:49:57.911Z,36.99
2018-05-09T08:51:03.690Z,37.04
2018-05-09T08:52:09.465Z,36.58
2018-05-09T08:53:15.974Z,36.10
2018-05-09T08:54:21.728Z,35.73
2018-05-09T08:55:27.483Z,35.26
2018-05-09T08:56:33.355Z,35.42
2018-05-09T08:57:39.101Z,35.84
2018-05-09T08:58:44.867Z,36.07
2018-05-09T08:59:50.621Z,35.67
2018-05-09T09:00:56.377Z,35.67
2018-05-09T09:02:02.149Z,35.54
2018-05-09T09:03:08.944Z,35.29
2018-05-09T09:04:14.925Z,35.29
2018-05-09T09:05:20.864Z,35.41
2018-05-09T09:06:26.639Z,35.54
2018-05-09T09:07:32.618Z,35.51
2018-05-09T09:08:38.366Z,35.54
2018-05-09T09:09:44.123Z,35.52
2018-05-09T09:10:49.929Z,35.79
2018-05-09T09:11:55.831Z,36.08
2018-05-09T09:13:01.607Z,36.14
2018-05-09T09:14:07.792Z,36.02
2018-05-09T09:15:13.586Z,36.15
2018-05-09T09:16:19.515Z,36.26
2018-05-09T09:17:25.036Z,36.31
2018-05-09T09:18:30.867Z,36.06
2018-05-09T09:19:36.560Z,36.31
2018-05-09T09:20:43.152Z,35.92
2018-05-09T09:21:49.819Z,35.84
2018-05-09T09:22:55.578Z,35.99
2018-05-09T09:24:01.350Z,36.04
2018-05-09T09:25:07.104Z,36.34
2018-05-09T09:26:12.868Z,36.89
2018-05-09T09:27:18.623Z,37.26
2018-05-09T09:28:24.383Z,37.64
2018-05-09T09:29:29.838Z,37.54
2018-05-09T09:30:35.252Z,37.87
2018-05-09T09:31:40.999Z,37.77
2018-05-09T09:32:46.759Z,37.80
2018-05-09T09:33:52.250Z,37.83
2018-05-09T09:34:57.756Z,37.76
2018-05-09T09:36:03.233Z,37.82
2018-05-09T09:37:08.979Z,37.86
2018-05-09T09:38:14.481Z,37.64
2018-05-09T09:39:20.997Z,37.48
2018-05-09T09:40:26.786Z,37.72
2018-05-09T09:41:32.319Z,37.89
2018-05-09T09:42:37.976Z,38.62
2018-05-09T09:43:43.731Z,39.05
2018-05-09T09:44:49.212Z,39.40
2018-05-09T09:45:54.703Z,39.26
2018-05-09T09:47:00.177Z,38.90
2018-05-09T09:48:05.657Z,38.70
2018-05-09T09:49:11.132Z,38.42
2018-05-09T09:50:16.611Z,38.21
2018-05-09T09:51:22.138Z,37.84
2018-05-09T09:52:27.628Z,38.27
2018-05-09T09:53:33.868Z,38.39
2018-05-09T09:54:39.358Z,38.35
2018-05-09T09:55:44.878Z,38.33
2018-05-09T09:56:50.378Z,38.10
2018-05-09T09:57:55.870Z,37.76
2018-05-09T09:59:02.375Z,37.34
2018-05-09T10:00:07.855Z,37.37
2018-05-09T10:01:14.383Z,36.85
2018-05-09T10:02:20.667Z,35.71
2018-05-09T10:03:27.183Z,35.21
2018-05-09T10:04:32.935Z,34.61
2018-05-09T10:05:38.687Z,34.44
2018-05-09T10:06:44.224Z,34.38
2018-05-09T10:07:49.990Z,34.29
2018-05-09T10:08:56.509Z,33.93
2018-05-09T10:10:02.300Z,33.68
2018-05-09T10:11:08.812Z,32.99
2018-05-09T10:12:14.562Z,32.97
2018-05-09T10:13:20.334Z,32.92
2018-05-09T10:14:26.647Z,33.22
2018-05-09T10:15:32.399Z,33.39
2018-05-09T10:16:38.160Z,33.22
2018-05-09T10:17:43.920Z,33.27
2018-05-09T10:18:50.467Z,33.52
2018-05-09T10:19:56.220Z,33.47
2018-05-09T10:21:02.746Z,33.15
2018-05-09T10:22:08.490Z,32.97
2018-05-09T10:23:14.363Z,32.86
2018-05-09T10:24:21.071Z,32.79
2018-05-09T10:25:26.827Z,32.62
2018-05-09T10:26:32.789Z,32.34
2018-05-09T10:27:38.535Z,32.26
2018-05-09T10:28:44.283Z,31.76
2018-05-09T10:29:50.057Z,31.74
2018-05-09T10:30:55.896Z,31.55
2018-05-09T10:32:01.455Z,31.48
2018-05-09T10:33:07.216Z,31.21
2018-05-09T10:34:12.764Z,30.98
2018-05-09T10:35:18.536Z,30.56
2018-05-09T10:36:25.059Z,30.56
2018-05-09T10:37:30.812Z,30.44
2018-05-09T10:38:36.567Z,30.16
2018-05-09T10:39:42.344Z,30.19
2018-05-09T10:40:48.122Z,29.97
2018-05-09T10:41:53.871Z,29.79
2018-05-09T10:42:59.423Z,29.67
2018-05-09T10:44:05.176Z,29.70
2018-05-09T10:45:11.692Z,29.47
2018-05-09T10:46:17.473Z,29.25
2018-05-09T10:47:23.219Z,29.09
2018-05-09T10:48:29.511Z,28.98
2018-05-09T10:49:35.280Z,28.83
2018-05-09T10:50:41.025Z,28.68
2018-05-09T10:51:47.006Z,28.72
2018-05-09T10:52:52.746Z,28.77
2018-05-09T10:53:59.263Z,28.64
2018-05-09T10:55:05.022Z,28.51
2018-05-09T10:56:10.763Z,28.45
2018-05-09T10:57:16.613Z,28.50
2018-05-09T10:58:22.511Z,28.41
2018-05-09T10:59:29.032Z,28.45
2018-05-09T11:00:34.786Z,28.61
2018-05-09T11:01:41.301Z,28.61
2018-05-09T11:02:47.075Z,28.68
2018-05-09T11:03:52.848Z,28.86
2018-05-09T11:04:58.603Z,29.06
2018-05-09T11:06:04.352Z,29.03
2018-05-09T11:07:10.094Z,29.16
2018-05-09T11:08:15.885Z,29.27
2018-05-09T11:09:21.647Z,29.15
2018-05-09T11:10:27.220Z,29.30
2018-05-09T11:11:33.165Z,29.41
2018-05-09T11:12:38.955Z,29.51
2018-05-09T11:13:45.487Z,29.50
2018-05-09T11:14:52.747Z,29.43
2018-05-09T11:15:58.266Z,29.48
2018-05-09T11:17:04.027Z,29.57
2018-05-09T11:18:09.783Z,29.65
2018-05-09T11:19:16.031Z,29.60
2018-05-09T11:20:22.033Z,29.35
2018-05-09T11:21:27.779Z,29.29
2018-05-09T11:22:33.621Z,29.25
2018-05-09T11:23:39.367Z,29.21
2018-05-09T11:24:45.210Z,29.10
2018-05-09T11:25:52.615Z,29.00
2018-05-09T11:26:59.130Z,29.03
2018-05-09T11:28:05.640Z,29.05
2018-05-09T11:29:11.195Z,29.16
2018-05-09T11:30:18.479Z,29.10
2018-05-09T11:31:24.224Z,29.15
2018-05-09T11:32:29.966Z,29.17
2018-05-09T11:33:35.716Z,29.40
2018-05-09T11:34:42.237Z,29.51
2018-05-09T11:35:48.025Z,29.57
2018-05-09T11:36:54.535Z,29.59
2018-05-09T11:38:00.304Z,29.69
2018-05-09T11:39:05.846Z,29.80
2018-05-09T11:40:11.597Z,29.78
2018-05-09T11:41:18.143Z,29.79
2018-05-09T11:42:23.887Z,29.78
2018-05-09T11:43:29.718Z,29.76
2018-05-09T11:44:35.480Z,29.75
2018-05-09T11:45:41.421Z,29.66
2018-05-09T11:46:47.975Z,29.48
2018-05-09T11:47:53.724Z,29.29
2018-05-09T11:48:59.475Z,29.20
2018-05-09T11:50:06.195Z,29.27
2018-05-09T11:51:11.942Z,29.22
2018-05-09T11:52:17.720Z,29.04
2018-05-09T11:53:24.447Z,29.09
2018-05-09T11:54:29.972Z,29.07
2018-05-09T11:55:35.723Z,28.93
2018-05-09T11:56:41.479Z,28.89
2018-05-09T11:57:47.253Z,28.70
2018-05-09T11:58:53.767Z,28.57
2018-05-09T11:59:59.524Z,28.59
2018-05-09T12:01:05.271Z,28.62
2018-05-09T12:02:11.128Z,28.64
2018-05-09T12:03:17.784Z,28.56
2018-05-09T12:04:23.963Z,28.45
2018-05-09T12:05:30.473Z,28.30
2018-05-09T12:06:36.227Z,28.33
2018-05-09T12:07:41.997Z,28.21
2018-05-09T12:08:48.539Z,28.19
2018-05-09T12:09:54.357Z,28.14
2018-05-09T12:11:00.100Z,28.21
2018-05-09T12:12:05.856Z,27.99
2018-05-09T12:13:11.600Z,27.87
2018-05-09T12:14:17.374Z,28.00
2018-05-09T12:15:23.126Z,28.03
2018-05-09T12:16:28.876Z,28.04
2018-05-09T12:17:34.624Z,28.08
2018-05-09T12:18:40.395Z,28.16
2018-05-09T12:19:46.266Z,28.19
2018-05-09T12:20:52.844Z,28.34
2018-05-09T12:21:59.357Z,28.37
2018-05-09T12:23:05.100Z,28.38
2018-05-09T12:24:10.854Z,28.41
2018-05-09T12:25:16.632Z,28.49
2018-05-09T12:26:22.387Z,28.52
2018-05-09T12:27:28.139Z,28.49
2018-05-09T12:28:33.901Z,28.46
2018-05-09T12:29:39.653Z,28.52
2018-05-09T12:30:45.437Z,28.59
2018-05-09T12:31:51.941Z,28.59
2018-05-09T12:32:57.697Z,28.65
2018-05-09T12:34:03.440Z,28.72
2018-05-09T12:35:09.201Z,28.74
2018-05-09T12:36:15.757Z,28.77
2018-05-09T12:37:23.020Z,28.84
2018-05-09T12:38:28.579Z,28.76
2018-05-09T12:39:35.102Z,28.83
2018-05-09T12:40:40.847Z,28.93
2018-05-09T12:41:46.616Z,29.01
2018-05-09T12:42:52.362Z,29.16
2018-05-09T12:43:58.879Z,29.25
2018-05-09T12:45:04.626Z,29.36
2018-05-09T12:46:10.394Z,29.42
2018-05-09T12:47:16.184Z,29.36
2018-05-09T12:48:21.943Z,29.27
2018-05-09T12:49:27.708Z,29.27
2018-05-09T12:50:33.439Z,29.38
2018-05-09T12:51:39.202Z,29.35
2018-05-09T12:52:44.984Z,29.43
2018-05-09T12:53:50.750Z,29.47
2018-05-09T12:54:56.554Z,29.53
2018-05-09T12:56:03.065Z,29.63
2018-05-09T12:57:08.820Z,29.42
2018-05-09T12:58:14.594Z,29.29
2018-05-09T12:59:20.383Z,29.21
2018-05-09T13:00:26.924Z,29.34
2018-05-09T13:01:32.887Z,29.36
2018-05-09T13:02:38.639Z,29.37
2018-05-09T13:03:44.417Z,29.39
2018-05-09T13:04:50.931Z,29.09
2018-05-09T13:05:56.458Z,28.79
2018-05-09T13:07:02.217Z,28.51
2018-05-09T13:08:09.488Z,28.28
2018-05-09T13:09:15.255Z,28.17
2018-05-09T13:10:21.782Z,28.15
2018-05-09T13:11:27.523Z,28.16
2018-05-09T13:12:33.275Z,28.17
2018-05-09T13:13:39.025Z,28.21
2018-05-09T13:15:54.707Z,28.25
2018-05-09T13:17:00.459Z,28.21
2018-05-09T13:18:06.217Z,28.20
2018-05-09T13:19:12.734Z,28.27
2018-05-09T13:20:18.491Z,28.30
2018-05-09T13:21:25.032Z,28.25
2018-05-09T13:22:30.778Z,28.32
2018-05-09T13:23:36.748Z,28.39
2018-05-09T13:24:42.272Z,28.42
2018-05-09T13:25:48.036Z,28.36
2018-05-09T13:26:54.020Z,28.24
2018-05-09T13:27:59.768Z,28.12
2018-05-09T13:29:05.288Z,28.14
2018-05-09T13:30:11.042Z,28.12
2018-05-09T13:31:16.799Z,28.10
2018-05-09T13:32:22.575Z,28.08
2018-05-09T13:33:29.096Z,28.08
2018-05-09T13:34:34.855Z,28.08
2018-05-09T13:35:40.603Z,28.00
2018-05-09T13:36:46.360Z,28.03
2018-05-09T13:37:52.140Z,28.05
2018-05-09T13:38:57.920Z,27.99
2018-05-09T13:40:03.760Z,27.98
2018-05-09T13:41:09.643Z,27.92
2018-05-09T13:42:16.155Z,28.00
2018-05-09T13:43:21.935Z,27.95
2018-05-09T13:44:27.689Z,27.97
2018-05-09T13:45:34.201Z,27.96
2018-05-09T13:46:39.966Z,28.01
2018-05-09T13:47:45.934Z,28.07
2018-05-09T13:48:52.474Z,28.11
2018-05-09T13:49:58.233Z,28.09
2018-05-09T13:51:04.758Z,28.13
2018-05-09T13:52:10.715Z,28.10
2018-05-09T13:53:16.235Z,28.16
2018-05-09T13:54:22.004Z,28.13
2018-05-09T13:55:27.754Z,28.18
2018-05-09T13:56:33.516Z,28.21
2018-05-09T13:57:39.263Z,28.18
2018-05-09T13:58:45.035Z,28.16
2018-05-09T13:59:50.813Z,28.07
2018-05-09T14:00:56.564Z,28.04
2018-05-09T14:02:03.079Z,28.13
2018-05-09T14:03:08.832Z,28.15
2018-05-09T14:04:14.584Z,28.20
2018-05-09T14:05:21.861Z,28.18
2018-05-09T14:06:27.615Z,28.18
2018-05-09T14:07:34.139Z,28.24
2018-05-09T14:08:39.887Z,28.28
2018-05-09T14:09:45.677Z,28.36
2018-05-09T14:10:51.639Z,28.35
2018-05-09T14:11:57.529Z,28.24